sensor_id;sensor_type;location;lat;lon;timestamp;temperature;humidity
14099;DHT22;7126;48.458;7.930;2023-03-31T00:00:57;13.40;99.90
14099;DHT22;7126;48.458;7.930;2023-03-31T00:03:25;13.40;99.90
14099;DHT22;7126;48.458;7.930;2023-03-31T00:05:57;13.40;99.90
14099;DHT22;7126;48.458;7.930;2023-03-31T00:08:24;13.40;99.90
14099;DHT22;7126;48.458;7.930;2023-03-31T00:10:58;13.40;99.90
14099;DHT22;7126;48.458;7.930;2023-03-31T00:13:25;13.40;99.90
14099;DHT22;7126;48.458;7.930;2023-03-31T00:16:00;13.40;99.90
14099;DHT22;7126;48.458;7.930;2023-03-31T00:18:26;13.40;99.90
14099;DHT22;7126;48.458;7.930;2023-03-31T00:20:53;13.40;99.90
14099;DHT22;7126;48.458;7.930;2023-03-31T00:23:19;13.30;99.90
14099;DHT22;7126;48.458;7.930;2023-03-31T00:25:55;13.20;99.90
14099;DHT22;7126;48.458;7.930;2023-03-31T00:28:21;13.20;99.90
14099;DHT22;7126;48.458;7.930;2023-03-31T00:30:47;13.20;99.90
14099;DHT22;7126;48.458;7.930;2023-03-31T00:33:12;13.20;99.90
14099;DHT22;7126;48.458;7.930;2023-03-31T00:35:38;13.20;99.90
14099;DHT22;7126;48.458;7.930;2023-03-31T00:38:04;13.30;99.90
14099;DHT22;7126;48.458;7.930;2023-03-31T00:40:34;13.30;99.90
14099;DHT22;7126;48.458;7.930;2023-03-31T00:42:59;13.40;99.90
14099;DHT22;7126;48.458;7.930;2023-03-31T00:45:28;13.40;99.90
14099;DHT22;7126;48.458;7.930;2023-03-31T00:48:06;13.50;99.90
14099;DHT22;7126;48.458;7.930;2023-03-31T00:51:04;13.40;99.90
14099;DHT22;7126;48.458;7.930;2023-03-31T00:53:31;13.30;99.90
14099;DHT22;7126;48.458;7.930;2023-03-31T00:56:04;13.20;99.90
14099;DHT22;7126;48.458;7.930;2023-03-31T00:58:31;13.10;99.90
14099;DHT22;7126;48.458;7.930;2023-03-31T01:00:59;12.90;99.90
14099;DHT22;7126;48.458;7.930;2023-03-31T01:03:27;12.90;99.90
14099;DHT22;7126;48.458;7.930;2023-03-31T01:06:01;12.80;99.90
14099;DHT22;7126;48.458;7.930;2023-03-31T01:08:30;12.80;99.90
14099;DHT22;7126;48.458;7.930;2023-03-31T01:10:59;12.80;99.90
14099;DHT22;7126;48.458;7.930;2023-03-31T01:13:27;12.80;99.90
14099;DHT22;7126;48.458;7.930;2023-03-31T01:15:54;12.70;99.90
14099;DHT22;7126;48.458;7.930;2023-03-31T01:18:20;12.70;99.90
14099;DHT22;7126;48.458;7.930;2023-03-31T01:32:13;12.40;99.90
14099;DHT22;7126;48.458;7.930;2023-03-31T01:37:36;12.30;99.90
14099;DHT22;7126;48.458;7.930;2023-03-31T01:46:01;12.20;99.90
14099;DHT22;7126;48.458;7.930;2023-03-31T01:48:42;12.10;99.90
14099;DHT22;7126;48.458;7.930;2023-03-31T01:51:16;12.10;99.90
14099;DHT22;7126;48.458;7.930;2023-03-31T01:54:04;12.10;99.90
14099;DHT22;7126;48.458;7.930;2023-03-31T01:56:54;12.00;99.90
14099;DHT22;7126;48.458;7.930;2023-03-31T01:59:37;12.00;99.90
14099;DHT22;7126;48.458;7.930;2023-03-31T02:02:11;12.00;99.90
14099;DHT22;7126;48.458;7.930;2023-03-31T02:04:44;12.00;99.90
14099;DHT22;7126;48.458;7.930;2023-03-31T02:07:15;12.00;99.90
14099;DHT22;7126;48.458;7.930;2023-03-31T02:09:46;11.90;99.90
14099;DHT22;7126;48.458;7.930;2023-03-31T02:12:12;11.90;99.90
14099;DHT22;7126;48.458;7.930;2023-03-31T02:14:42;11.80;99.90
14099;DHT22;7126;48.458;7.930;2023-03-31T02:17:14;11.80;99.90
14099;DHT22;7126;48.458;7.930;2023-03-31T02:19:44;11.80;99.90
14099;DHT22;7126;48.458;7.930;2023-03-31T02:22:12;11.70;99.90
14099;DHT22;7126;48.458;7.930;2023-03-31T02:24:39;11.70;99.90
14099;DHT22;7126;48.458;7.930;2023-03-31T02:27:26;11.60;99.90
14099;DHT22;7126;48.458;7.930;2023-03-31T02:29:53;11.60;99.90
14099;DHT22;7126;48.458;7.930;2023-03-31T02:32:37;11.60;99.90
14099;DHT22;7126;48.458;7.930;2023-03-31T02:35:04;11.60;99.90
14099;DHT22;7126;48.458;7.930;2023-03-31T02:37:31;11.60;99.90
14099;DHT22;7126;48.458;7.930;2023-03-31T02:40:00;11.60;99.90
14099;DHT22;7126;48.458;7.930;2023-03-31T02:42:27;11.50;99.90
14099;DHT22;7126;48.458;7.930;2023-03-31T02:44:53;11.50;99.90
14099;DHT22;7126;48.458;7.930;2023-03-31T02:47:20;11.50;99.90
14099;DHT22;7126;48.458;7.930;2023-03-31T02:49:52;11.40;99.90
14099;DHT22;7126;48.458;7.930;2023-03-31T02:59:25;11.30;99.90
14099;DHT22;7126;48.458;7.930;2023-03-31T03:07:16;11.40;99.90
14099;DHT22;7126;48.458;7.930;2023-03-31T03:15:37;11.30;99.90
14099;DHT22;7126;48.458;7.930;2023-03-31T03:18:05;11.30;99.90
14099;DHT22;7126;48.458;7.930;2023-03-31T03:20:31;11.30;99.90
14099;DHT22;7126;48.458;7.930;2023-03-31T03:22:58;11.20;99.90
14099;DHT22;7126;48.458;7.930;2023-03-31T03:25:24;11.20;99.90
14099;DHT22;7126;48.458;7.930;2023-03-31T03:27:50;11.20;99.90
14099;DHT22;7126;48.458;7.930;2023-03-31T03:30:17;11.10;99.90
14099;DHT22;7126;48.458;7.930;2023-03-31T03:32:43;11.10;99.90
14099;DHT22;7126;48.458;7.930;2023-03-31T03:35:09;11.10;99.90
14099;DHT22;7126;48.458;7.930;2023-03-31T03:37:35;11.10;99.90
14099;DHT22;7126;48.458;7.930;2023-03-31T03:40:02;11.20;99.90
14099;DHT22;7126;48.458;7.930;2023-03-31T03:42:30;11.20;99.90
14099;DHT22;7126;48.458;7.930;2023-03-31T03:44:55;11.30;99.90
14099;DHT22;7126;48.458;7.930;2023-03-31T03:47:21;11.30;99.90
14099;DHT22;7126;48.458;7.930;2023-03-31T03:49:46;11.30;99.90
14099;DHT22;7126;48.458;7.930;2023-03-31T03:52:13;11.30;99.90
14099;DHT22;7126;48.458;7.930;2023-03-31T03:54:39;11.30;99.90
14099;DHT22;7126;48.458;7.930;2023-03-31T03:57:05;11.30;99.90
14099;DHT22;7126;48.458;7.930;2023-03-31T03:59:31;11.40;99.90
14099;DHT22;7126;48.458;7.930;2023-03-31T04:01:57;11.40;99.90
14099;DHT22;7126;48.458;7.930;2023-03-31T04:04:22;11.50;99.90
14099;DHT22;7126;48.458;7.930;2023-03-31T04:06:48;11.60;99.90
14099;DHT22;7126;48.458;7.930;2023-03-31T04:09:14;11.60;99.90
14099;DHT22;7126;48.458;7.930;2023-03-31T04:11:40;11.60;99.90
14099;DHT22;7126;48.458;7.930;2023-03-31T04:14:05;11.70;99.90
14099;DHT22;7126;48.458;7.930;2023-03-31T04:16:31;11.70;99.90
14099;DHT22;7126;48.458;7.930;2023-03-31T04:18:58;11.60;99.90
14099;DHT22;7126;48.458;7.930;2023-03-31T04:21:28;11.60;99.90
14099;DHT22;7126;48.458;7.930;2023-03-31T04:23:55;11.60;99.90
14099;DHT22;7126;48.458;7.930;2023-03-31T04:26:27;11.60;99.90
14099;DHT22;7126;48.458;7.930;2023-03-31T04:29:04;11.50;99.90
14099;DHT22;7126;48.458;7.930;2023-03-31T04:31:32;11.50;99.90
14099;DHT22;7126;48.458;7.930;2023-03-31T04:33:57;11.50;99.90
14099;DHT22;7126;48.458;7.930;2023-03-31T04:36:27;11.50;99.90
14099;DHT22;7126;48.458;7.930;2023-03-31T04:38:56;11.50;99.90
14099;DHT22;7126;48.458;7.930;2023-03-31T04:41:23;11.40;99.90
14099;DHT22;7126;48.458;7.930;2023-03-31T04:43:49;11.40;99.90
14099;DHT22;7126;48.458;7.930;2023-03-31T04:46:15;11.40;99.90
14099;DHT22;7126;48.458;7.930;2023-03-31T04:48:40;11.40;99.90
14099;DHT22;7126;48.458;7.930;2023-03-31T04:51:06;11.40;99.90
14099;DHT22;7126;48.458;7.930;2023-03-31T04:53:33;11.40;99.90
14099;DHT22;7126;48.458;7.930;2023-03-31T04:55:59;11.40;99.90
14099;DHT22;7126;48.458;7.930;2023-03-31T04:58:25;11.40;99.90
14099;DHT22;7126;48.458;7.930;2023-03-31T05:00:51;11.50;99.90
14099;DHT22;7126;48.458;7.930;2023-03-31T05:03:17;11.60;99.90
14099;DHT22;7126;48.458;7.930;2023-03-31T05:05:42;11.50;99.90
14099;DHT22;7126;48.458;7.930;2023-03-31T05:08:08;11.50;99.90
14099;DHT22;7126;48.458;7.930;2023-03-31T05:10:33;11.60;99.90
14099;DHT22;7126;48.458;7.930;2023-03-31T05:12:59;11.60;99.90
14099;DHT22;7126;48.458;7.930;2023-03-31T05:15:24;11.60;99.90
14099;DHT22;7126;48.458;7.930;2023-03-31T05:17:50;11.60;99.90
14099;DHT22;7126;48.458;7.930;2023-03-31T05:20:17;11.60;99.90
14099;DHT22;7126;48.458;7.930;2023-03-31T05:22:44;11.60;99.90
14099;DHT22;7126;48.458;7.930;2023-03-31T05:25:11;11.50;99.90
14099;DHT22;7126;48.458;7.930;2023-03-31T05:27:39;11.40;99.90
14099;DHT22;7126;48.458;7.930;2023-03-31T05:30:05;11.50;99.90
14099;DHT22;7126;48.458;7.930;2023-03-31T05:32:32;11.50;99.90
14099;DHT22;7126;48.458;7.930;2023-03-31T05:34:58;11.50;99.90
14099;DHT22;7126;48.458;7.930;2023-03-31T05:37:24;11.50;99.90
14099;DHT22;7126;48.458;7.930;2023-03-31T05:39:50;11.50;99.90
14099;DHT22;7126;48.458;7.930;2023-03-31T05:42:17;11.60;99.90
14099;DHT22;7126;48.458;7.930;2023-03-31T05:44:42;11.60;99.90
14099;DHT22;7126;48.458;7.930;2023-03-31T05:47:08;11.60;99.90
14099;DHT22;7126;48.458;7.930;2023-03-31T05:49:33;11.70;99.90
14099;DHT22;7126;48.458;7.930;2023-03-31T05:51:59;11.60;99.90
14099;DHT22;7126;48.458;7.930;2023-03-31T05:54:26;11.60;99.90
14099;DHT22;7126;48.458;7.930;2023-03-31T05:56:52;11.70;99.90
14099;DHT22;7126;48.458;7.930;2023-03-31T05:59:17;11.70;99.90
14099;DHT22;7126;48.458;7.930;2023-03-31T06:01:43;11.70;99.90
14099;DHT22;7126;48.458;7.930;2023-03-31T06:04:08;11.70;99.90
14099;DHT22;7126;48.458;7.930;2023-03-31T06:06:34;11.70;99.90
14099;DHT22;7126;48.458;7.930;2023-03-31T06:09:03;11.70;99.90
14099;DHT22;7126;48.458;7.930;2023-03-31T06:11:29;11.70;99.90
14099;DHT22;7126;48.458;7.930;2023-03-31T06:13:54;11.70;99.90
14099;DHT22;7126;48.458;7.930;2023-03-31T06:16:20;11.70;99.90
14099;DHT22;7126;48.458;7.930;2023-03-31T06:18:46;11.70;99.90
14099;DHT22;7126;48.458;7.930;2023-03-31T06:21:13;11.70;99.90
14099;DHT22;7126;48.458;7.930;2023-03-31T06:23:41;11.80;99.90
14099;DHT22;7126;48.458;7.930;2023-03-31T06:26:11;11.70;99.90
14099;DHT22;7126;48.458;7.930;2023-03-31T06:28:37;11.70;99.90
14099;DHT22;7126;48.458;7.930;2023-03-31T06:31:12;11.70;99.90
14099;DHT22;7126;48.458;7.930;2023-03-31T06:33:39;11.60;99.90
14099;DHT22;7126;48.458;7.930;2023-03-31T06:36:06;11.60;99.90
14099;DHT22;7126;48.458;7.930;2023-03-31T06:38:33;11.60;99.90
14099;DHT22;7126;48.458;7.930;2023-03-31T06:40:59;11.70;99.90
14099;DHT22;7126;48.458;7.930;2023-03-31T06:43:25;11.70;99.90
14099;DHT22;7126;48.458;7.930;2023-03-31T06:45:54;11.70;99.90
14099;DHT22;7126;48.458;7.930;2023-03-31T06:48:22;11.80;99.90
14099;DHT22;7126;48.458;7.930;2023-03-31T06:50:48;11.80;99.90
14099;DHT22;7126;48.458;7.930;2023-03-31T06:53:13;11.80;99.90
14099;DHT22;7126;48.458;7.930;2023-03-31T06:55:39;11.80;99.90
14099;DHT22;7126;48.458;7.930;2023-03-31T06:58:05;11.80;99.90
14099;DHT22;7126;48.458;7.930;2023-03-31T07:00:32;11.90;99.90
14099;DHT22;7126;48.458;7.930;2023-03-31T07:02:58;11.90;99.90
14099;DHT22;7126;48.458;7.930;2023-03-31T07:05:23;11.90;99.90
14099;DHT22;7126;48.458;7.930;2023-03-31T07:07:54;11.90;99.90
14099;DHT22;7126;48.458;7.930;2023-03-31T07:10:20;11.90;99.90
14099;DHT22;7126;48.458;7.930;2023-03-31T07:12:46;11.90;99.90
14099;DHT22;7126;48.458;7.930;2023-03-31T07:15:11;11.90;99.90
14099;DHT22;7126;48.458;7.930;2023-03-31T07:17:37;11.90;99.90
14099;DHT22;7126;48.458;7.930;2023-03-31T07:20:07;12.00;99.90
14099;DHT22;7126;48.458;7.930;2023-03-31T07:22:43;12.10;99.90
14099;DHT22;7126;48.458;7.930;2023-03-31T07:25:10;12.10;99.90
14099;DHT22;7126;48.458;7.930;2023-03-31T07:27:36;12.20;99.90
14099;DHT22;7126;48.458;7.930;2023-03-31T07:30:06;12.20;99.90
14099;DHT22;7126;48.458;7.930;2023-03-31T07:32:32;12.20;99.90
14099;DHT22;7126;48.458;7.930;2023-03-31T07:34:58;12.30;99.90
14099;DHT22;7126;48.458;7.930;2023-03-31T07:37:24;12.30;99.90
14099;DHT22;7126;48.458;7.930;2023-03-31T07:39:49;12.40;99.90
14099;DHT22;7126;48.458;7.930;2023-03-31T07:42:15;12.40;99.90
14099;DHT22;7126;48.458;7.930;2023-03-31T07:44:41;12.50;99.90
14099;DHT22;7126;48.458;7.930;2023-03-31T07:47:06;12.60;99.90
14099;DHT22;7126;48.458;7.930;2023-03-31T07:49:33;12.60;99.90
14099;DHT22;7126;48.458;7.930;2023-03-31T07:51:59;12.70;99.90
14099;DHT22;7126;48.458;7.930;2023-03-31T07:54:25;12.80;99.90
14099;DHT22;7126;48.458;7.930;2023-03-31T07:56:51;12.90;99.90
14099;DHT22;7126;48.458;7.930;2023-03-31T07:59:17;13.00;99.90
14099;DHT22;7126;48.458;7.930;2023-03-31T08:01:43;13.10;99.90
14099;DHT22;7126;48.458;7.930;2023-03-31T08:04:10;13.10;99.90
14099;DHT22;7126;48.458;7.930;2023-03-31T08:06:36;13.20;99.90
14099;DHT22;7126;48.458;7.930;2023-03-31T08:09:03;13.20;99.90
14099;DHT22;7126;48.458;7.930;2023-03-31T08:11:29;13.30;99.90
14099;DHT22;7126;48.458;7.930;2023-03-31T08:13:55;13.30;99.90
14099;DHT22;7126;48.458;7.930;2023-03-31T08:16:21;13.30;99.90
14099;DHT22;7126;48.458;7.930;2023-03-31T08:18:47;13.40;99.90
14099;DHT22;7126;48.458;7.930;2023-03-31T08:21:12;13.40;99.90
14099;DHT22;7126;48.458;7.930;2023-03-31T08:23:38;13.40;99.90
14099;DHT22;7126;48.458;7.930;2023-03-31T08:26:15;13.30;99.90
14099;DHT22;7126;48.458;7.930;2023-03-31T08:28:44;13.40;99.90
14099;DHT22;7126;48.458;7.930;2023-03-31T08:31:10;13.40;99.90
14099;DHT22;7126;48.458;7.930;2023-03-31T08:33:36;13.50;99.90
14099;DHT22;7126;48.458;7.930;2023-03-31T08:36:07;13.50;99.90
14099;DHT22;7126;48.458;7.930;2023-03-31T08:38:38;13.50;99.90
14099;DHT22;7126;48.458;7.930;2023-03-31T08:41:09;13.60;99.90
14099;DHT22;7126;48.458;7.930;2023-03-31T08:43:43;13.70;99.90
14099;DHT22;7126;48.458;7.930;2023-03-31T08:46:11;13.90;99.90
14099;DHT22;7126;48.458;7.930;2023-03-31T08:48:45;14.00;99.90
14099;DHT22;7126;48.458;7.930;2023-03-31T08:51:37;14.30;99.90
14099;DHT22;7126;48.458;7.930;2023-03-31T08:54:05;14.50;99.90
14099;DHT22;7126;48.458;7.930;2023-03-31T08:56:36;14.60;99.90
14099;DHT22;7126;48.458;7.930;2023-03-31T08:59:05;14.70;99.90
14099;DHT22;7126;48.458;7.930;2023-03-31T09:01:52;14.70;99.90
14099;DHT22;7126;48.458;7.930;2023-03-31T09:10:01;14.70;99.90
14099;DHT22;7126;48.458;7.930;2023-03-31T09:15:16;14.50;99.90
14099;DHT22;7126;48.458;7.930;2023-03-31T09:17:47;14.50;99.90
14099;DHT22;7126;48.458;7.930;2023-03-31T09:20:29;14.50;99.90
14099;DHT22;7126;48.458;7.930;2023-03-31T09:23:01;14.70;99.90
14099;DHT22;7126;48.458;7.930;2023-03-31T09:25:35;14.80;99.90
14099;DHT22;7126;48.458;7.930;2023-03-31T09:28:04;14.70;99.90
14099;DHT22;7126;48.458;7.930;2023-03-31T09:30:34;14.70;99.90
14099;DHT22;7126;48.458;7.930;2023-03-31T09:33:26;14.70;99.90
14099;DHT22;7126;48.458;7.930;2023-03-31T09:36:04;14.70;99.90
14099;DHT22;7126;48.458;7.930;2023-03-31T09:38:30;14.80;99.90
14099;DHT22;7126;48.458;7.930;2023-03-31T09:40:57;14.90;99.90
14099;DHT22;7126;48.458;7.930;2023-03-31T09:43:26;15.00;99.90
14099;DHT22;7126;48.458;7.930;2023-03-31T09:45:52;15.00;99.90
14099;DHT22;7126;48.458;7.930;2023-03-31T09:48:25;15.10;99.90
14099;DHT22;7126;48.458;7.930;2023-03-31T09:51:04;15.20;99.90
14099;DHT22;7126;48.458;7.930;2023-03-31T09:53:46;15.20;99.90
14099;DHT22;7126;48.458;7.930;2023-03-31T09:56:12;15.20;99.90
14099;DHT22;7126;48.458;7.930;2023-03-31T09:59:00;15.10;99.90
14099;DHT22;7126;48.458;7.930;2023-03-31T10:01:26;15.00;99.90
14099;DHT22;7126;48.458;7.930;2023-03-31T10:03:54;15.00;99.90
14099;DHT22;7126;48.458;7.930;2023-03-31T10:06:22;14.90;99.90
14099;DHT22;7126;48.458;7.930;2023-03-31T10:08:53;14.80;99.90
14099;DHT22;7126;48.458;7.930;2023-03-31T10:11:19;14.80;99.90
14099;DHT22;7126;48.458;7.930;2023-03-31T10:13:47;14.50;99.90
14099;DHT22;7126;48.458;7.930;2023-03-31T10:16:28;14.20;99.90
14099;DHT22;7126;48.458;7.930;2023-03-31T10:18:54;14.10;99.90
14099;DHT22;7126;48.458;7.930;2023-03-31T10:21:24;13.90;99.90
14099;DHT22;7126;48.458;7.930;2023-03-31T10:23:51;13.80;99.90
14099;DHT22;7126;48.458;7.930;2023-03-31T10:26:26;13.50;99.90
14099;DHT22;7126;48.458;7.930;2023-03-31T10:28:53;12.60;99.90
14099;DHT22;7126;48.458;7.930;2023-03-31T10:31:32;11.80;99.90
14099;DHT22;7126;48.458;7.930;2023-03-31T10:33:59;11.20;99.90
14099;DHT22;7126;48.458;7.930;2023-03-31T10:36:29;10.90;99.90
14099;DHT22;7126;48.458;7.930;2023-03-31T10:38:56;10.80;99.90
14099;DHT22;7126;48.458;7.930;2023-03-31T10:41:28;10.70;99.90
14099;DHT22;7126;48.458;7.930;2023-03-31T10:43:56;10.60;99.90
14099;DHT22;7126;48.458;7.930;2023-03-31T10:46:45;10.70;99.90
14099;DHT22;7126;48.458;7.930;2023-03-31T10:51:50;10.60;99.90
14099;DHT22;7126;48.458;7.930;2023-03-31T10:54:16;10.60;99.90
14099;DHT22;7126;48.458;7.930;2023-03-31T10:56:56;10.60;99.90
14099;DHT22;7126;48.458;7.930;2023-03-31T10:59:31;10.60;99.90
14099;DHT22;7126;48.458;7.930;2023-03-31T11:05:13;10.70;99.90
14099;DHT22;7126;48.458;7.930;2023-03-31T11:08:00;10.70;99.90
14099;DHT22;7126;48.458;7.930;2023-03-31T11:19:15;11.20;99.90
14099;DHT22;7126;48.458;7.930;2023-03-31T11:30:12;11.90;99.90
14099;DHT22;7126;48.458;7.930;2023-03-31T11:35:37;12.60;99.90
14099;DHT22;7126;48.458;7.930;2023-03-31T11:38:42;12.70;99.90
14099;DHT22;7126;48.458;7.930;2023-03-31T11:41:33;12.80;99.90
14099;DHT22;7126;48.458;7.930;2023-03-31T11:44:07;12.70;99.90
14099;DHT22;7126;48.458;7.930;2023-03-31T11:46:45;12.60;99.90
14099;DHT22;7126;48.458;7.930;2023-03-31T11:52:01;12.90;99.90
14099;DHT22;7126;48.458;7.930;2023-03-31T11:57:02;14.10;99.90
14099;DHT22;7126;48.458;7.930;2023-03-31T11:59:29;14.40;99.90
14099;DHT22;7126;48.458;7.930;2023-03-31T12:02:18;14.40;99.90
14099;DHT22;7126;48.458;7.930;2023-03-31T12:04:52;14.40;99.90
14099;DHT22;7126;48.458;7.930;2023-03-31T12:10:19;14.20;99.90
14099;DHT22;7126;48.458;7.930;2023-03-31T12:13:03;14.20;99.90
14099;DHT22;7126;48.458;7.930;2023-03-31T12:15:41;14.10;99.90
14099;DHT22;7126;48.458;7.930;2023-03-31T12:18:22;13.80;99.90
14099;DHT22;7126;48.458;7.930;2023-03-31T12:20:52;13.70;99.90
14099;DHT22;7126;48.458;7.930;2023-03-31T12:23:23;13.70;99.90
14099;DHT22;7126;48.458;7.930;2023-03-31T12:25:56;13.50;99.90
14099;DHT22;7126;48.458;7.930;2023-03-31T12:28:24;13.30;99.90
14099;DHT22;7126;48.458;7.930;2023-03-31T12:30:53;13.10;99.90
14099;DHT22;7126;48.458;7.930;2023-03-31T12:33:32;13.00;99.90
14099;DHT22;7126;48.458;7.930;2023-03-31T12:48:01;12.70;99.90
14099;DHT22;7126;48.458;7.930;2023-03-31T12:53:38;12.10;99.90
14099;DHT22;7126;48.458;7.930;2023-03-31T12:56:06;11.80;99.90
14099;DHT22;7126;48.458;7.930;2023-03-31T12:58:37;11.60;99.90
14099;DHT22;7126;48.458;7.930;2023-03-31T13:03:53;11.20;99.90
14099;DHT22;7126;48.458;7.930;2023-03-31T13:08:58;11.10;99.90
14099;DHT22;7126;48.458;7.930;2023-03-31T13:14:10;12.30;99.90
14099;DHT22;7126;48.458;7.930;2023-03-31T13:16:36;13.00;99.90
14099;DHT22;7126;48.458;7.930;2023-03-31T13:19:02;13.30;99.90
14099;DHT22;7126;48.458;7.930;2023-03-31T13:21:28;13.30;99.90
14099;DHT22;7126;48.458;7.930;2023-03-31T13:23:58;13.00;99.90
14099;DHT22;7126;48.458;7.930;2023-03-31T13:26:36;12.80;99.90
14099;DHT22;7126;48.458;7.930;2023-03-31T13:29:16;12.60;99.90
14099;DHT22;7126;48.458;7.930;2023-03-31T13:34:46;12.30;99.90
14099;DHT22;7126;48.458;7.930;2023-03-31T13:37:22;12.20;99.90
14099;DHT22;7126;48.458;7.930;2023-03-31T13:54:04;14.40;99.90
14099;DHT22;7126;48.458;7.930;2023-03-31T13:56:41;14.70;99.90
14099;DHT22;7126;48.458;7.930;2023-03-31T14:02:35;15.10;99.90
14099;DHT22;7126;48.458;7.930;2023-03-31T14:07:33;14.70;99.90
14099;DHT22;7126;48.458;7.930;2023-03-31T14:10:01;14.60;99.90
14099;DHT22;7126;48.458;7.930;2023-03-31T14:12:36;14.10;99.90
14099;DHT22;7126;48.458;7.930;2023-03-31T14:15:04;13.90;99.90
14099;DHT22;7126;48.458;7.930;2023-03-31T14:17:36;13.80;99.90
14099;DHT22;7126;48.458;7.930;2023-03-31T14:34:28;13.40;99.90
14099;DHT22;7126;48.458;7.930;2023-03-31T14:37:05;13.30;99.90
14099;DHT22;7126;48.458;7.930;2023-03-31T14:39:36;13.30;99.90
14099;DHT22;7126;48.458;7.930;2023-03-31T14:42:19;13.20;99.90
14099;DHT22;7126;48.458;7.930;2023-03-31T14:44:46;13.10;99.90
14099;DHT22;7126;48.458;7.930;2023-03-31T14:47:24;13.10;99.90
14099;DHT22;7126;48.458;7.930;2023-03-31T14:50:16;13.00;99.90
14099;DHT22;7126;48.458;7.930;2023-03-31T14:52:50;13.00;99.90
14099;DHT22;7126;48.458;7.930;2023-03-31T14:55:19;13.00;99.90
14099;DHT22;7126;48.458;7.930;2023-03-31T14:57:48;12.90;99.90
14099;DHT22;7126;48.458;7.930;2023-03-31T15:00:23;12.90;99.90
14099;DHT22;7126;48.458;7.930;2023-03-31T15:02:50;12.90;99.90
14099;DHT22;7126;48.458;7.930;2023-03-31T15:05:29;12.90;99.90
14099;DHT22;7126;48.458;7.930;2023-03-31T15:08:04;12.90;99.90
14099;DHT22;7126;48.458;7.930;2023-03-31T15:10:35;12.90;99.90
14099;DHT22;7126;48.458;7.930;2023-03-31T15:13:11;12.90;99.90
14099;DHT22;7126;48.458;7.930;2023-03-31T15:15:40;12.80;99.90
14099;DHT22;7126;48.458;7.930;2023-03-31T15:18:05;12.80;99.90
14099;DHT22;7126;48.458;7.930;2023-03-31T15:20:36;12.70;99.90
14099;DHT22;7126;48.458;7.930;2023-03-31T15:23:04;12.70;99.90
14099;DHT22;7126;48.458;7.930;2023-03-31T15:25:43;12.70;99.90
14099;DHT22;7126;48.458;7.930;2023-03-31T15:28:15;12.60;99.90
14099;DHT22;7126;48.458;7.930;2023-03-31T15:30:42;12.20;99.90
14099;DHT22;7126;48.458;7.930;2023-03-31T15:33:19;11.10;99.90
14099;DHT22;7126;48.458;7.930;2023-03-31T15:35:46;10.00;99.90
14099;DHT22;7126;48.458;7.930;2023-03-31T15:38:13;9.50;99.90
14099;DHT22;7126;48.458;7.930;2023-03-31T15:40:42;9.50;99.90
14099;DHT22;7126;48.458;7.930;2023-03-31T15:43:15;9.40;99.90
14099;DHT22;7126;48.458;7.930;2023-03-31T15:45:47;9.50;99.90
14099;DHT22;7126;48.458;7.930;2023-03-31T15:48:31;9.60;99.90
14099;DHT22;7126;48.458;7.930;2023-03-31T15:53:51;10.00;99.90
14099;DHT22;7126;48.458;7.930;2023-03-31T15:56:40;10.20;99.90
14099;DHT22;7126;48.458;7.930;2023-03-31T15:59:26;10.30;99.90
14099;DHT22;7126;48.458;7.930;2023-03-31T16:01:53;10.60;99.90
14099;DHT22;7126;48.458;7.930;2023-03-31T16:04:20;10.60;99.90
14099;DHT22;7126;48.458;7.930;2023-03-31T16:06:52;10.80;99.90
14099;DHT22;7126;48.458;7.930;2023-03-31T16:09:47;10.80;99.90
14099;DHT22;7126;48.458;7.930;2023-03-31T16:12:24;10.90;99.90
14099;DHT22;7126;48.458;7.930;2023-03-31T16:17:36;10.90;99.90
14099;DHT22;7126;48.458;7.930;2023-03-31T16:20:07;10.90;99.90
14099;DHT22;7126;48.458;7.930;2023-03-31T16:22:40;11.00;99.90
14099;DHT22;7126;48.458;7.930;2023-03-31T16:25:13;11.00;99.90
14099;DHT22;7126;48.458;7.930;2023-03-31T16:27:43;11.10;99.90
14099;DHT22;7126;48.458;7.930;2023-03-31T16:30:12;11.20;99.90
14099;DHT22;7126;48.458;7.930;2023-03-31T16:32:38;11.30;99.90
14099;DHT22;7126;48.458;7.930;2023-03-31T16:35:22;11.40;99.90
14099;DHT22;7126;48.458;7.930;2023-03-31T16:37:53;11.40;99.90
14099;DHT22;7126;48.458;7.930;2023-03-31T16:40:18;11.40;99.90
14099;DHT22;7126;48.458;7.930;2023-03-31T16:42:44;11.40;99.90
14099;DHT22;7126;48.458;7.930;2023-03-31T16:45:10;11.50;99.90
14099;DHT22;7126;48.458;7.930;2023-03-31T16:47:36;11.50;99.90
14099;DHT22;7126;48.458;7.930;2023-03-31T16:50:03;11.40;99.90
14099;DHT22;7126;48.458;7.930;2023-03-31T16:52:31;11.40;99.90
14099;DHT22;7126;48.458;7.930;2023-03-31T16:54:57;11.40;99.90
14099;DHT22;7126;48.458;7.930;2023-03-31T16:57:22;11.40;99.90
14099;DHT22;7126;48.458;7.930;2023-03-31T16:59:48;11.30;99.90
14099;DHT22;7126;48.458;7.930;2023-03-31T17:02:14;11.30;99.90
14099;DHT22;7126;48.458;7.930;2023-03-31T17:04:39;11.30;99.90
14099;DHT22;7126;48.458;7.930;2023-03-31T17:07:05;11.40;99.90
14099;DHT22;7126;48.458;7.930;2023-03-31T17:09:31;11.40;99.90
14099;DHT22;7126;48.458;7.930;2023-03-31T17:11:57;11.40;99.90
14099;DHT22;7126;48.458;7.930;2023-03-31T17:14:22;11.40;99.90
14099;DHT22;7126;48.458;7.930;2023-03-31T17:16:49;11.40;99.90
14099;DHT22;7126;48.458;7.930;2023-03-31T17:19:15;11.50;99.90
14099;DHT22;7126;48.458;7.930;2023-03-31T17:21:41;11.50;99.90
14099;DHT22;7126;48.458;7.930;2023-03-31T17:24:07;11.60;99.90
14099;DHT22;7126;48.458;7.930;2023-03-31T17:26:33;11.50;99.90
14099;DHT22;7126;48.458;7.930;2023-03-31T17:29:00;11.60;99.90
14099;DHT22;7126;48.458;7.930;2023-03-31T17:31:26;11.50;99.90
14099;DHT22;7126;48.458;7.930;2023-03-31T17:33:51;11.40;99.90
14099;DHT22;7126;48.458;7.930;2023-03-31T17:36:17;11.40;99.90
14099;DHT22;7126;48.458;7.930;2023-03-31T17:38:43;11.40;99.90
14099;DHT22;7126;48.458;7.930;2023-03-31T17:41:10;11.40;99.90
14099;DHT22;7126;48.458;7.930;2023-03-31T17:43:37;11.40;99.90
14099;DHT22;7126;48.458;7.930;2023-03-31T17:46:05;11.40;99.90
14099;DHT22;7126;48.458;7.930;2023-03-31T17:48:31;11.40;99.90
14099;DHT22;7126;48.458;7.930;2023-03-31T17:51:05;11.40;99.90
14099;DHT22;7126;48.458;7.930;2023-03-31T17:53:33;11.40;99.90
14099;DHT22;7126;48.458;7.930;2023-03-31T17:55:59;11.40;99.90
14099;DHT22;7126;48.458;7.930;2023-03-31T17:58:25;11.40;99.90
14099;DHT22;7126;48.458;7.930;2023-03-31T18:00:51;11.40;99.90
14099;DHT22;7126;48.458;7.930;2023-03-31T18:03:17;11.40;99.90
14099;DHT22;7126;48.458;7.930;2023-03-31T18:05:43;11.40;99.90
14099;DHT22;7126;48.458;7.930;2023-03-31T18:08:09;11.40;99.90
14099;DHT22;7126;48.458;7.930;2023-03-31T18:10:36;11.40;99.90
14099;DHT22;7126;48.458;7.930;2023-03-31T18:13:02;11.40;99.90
14099;DHT22;7126;48.458;7.930;2023-03-31T18:15:27;11.40;99.90
14099;DHT22;7126;48.458;7.930;2023-03-31T18:17:53;11.40;99.90
14099;DHT22;7126;48.458;7.930;2023-03-31T18:20:19;11.30;99.90
14099;DHT22;7126;48.458;7.930;2023-03-31T18:22:44;11.40;99.90
14099;DHT22;7126;48.458;7.930;2023-03-31T18:25:10;11.40;99.90
14099;DHT22;7126;48.458;7.930;2023-03-31T18:27:36;11.40;99.90
14099;DHT22;7126;48.458;7.930;2023-03-31T18:30:02;11.50;99.90